createdAt,value
2023-02-11T00:02:19.996Z,85.00
2023-02-11T00:04:52.412Z,82.60
2023-02-11T00:07:24.428Z,88.40
2023-02-11T00:09:56.937Z,90.45
2023-02-11T00:12:46.404Z,85.13
2023-02-11T00:15:37.379Z,84.18
2023-02-11T00:18:09.422Z,84.22
2023-02-11T00:20:44.999Z,84.63
2023-02-11T00:23:16.823Z,84.72
2023-02-11T00:25:49.888Z,92.38
2023-02-11T00:28:21.786Z,77.97
2023-02-11T00:31:04.076Z,85.10
2023-02-11T00:33:36.021Z,82.90
2023-02-11T00:36:10.975Z,80.38
2023-02-11T00:38:43.028Z,82.03
2023-02-11T00:41:16.315Z,79.88
2023-02-11T00:43:48.385Z,78.93
2023-02-11T00:46:24.600Z,82.07
2023-02-11T00:48:58.139Z,78.30
2023-02-11T00:51:31.808Z,77.32
2023-02-11T00:54:05.765Z,80.22
2023-02-11T00:56:38.321Z,76.60
2023-02-11T00:59:09.522Z,79.43
2023-02-11T01:01:45.121Z,81.65
2023-02-11T01:04:16.562Z,72.65
2023-02-11T01:06:49.694Z,81.70
2023-02-11T01:09:21.759Z,79.70
2023-02-11T01:11:56.443Z,81.97
2023-02-11T01:14:28.096Z,79.82
2023-02-11T01:17:05.903Z,77.75
2023-02-11T01:19:37.259Z,78.90
2023-02-11T01:22:09.129Z,77.05
2023-02-11T01:24:41.326Z,85.78
2023-02-11T01:27:17.680Z,74.72
2023-02-11T01:29:51.671Z,83.28
2023-02-11T01:32:26.507Z,77.75
2023-02-11T01:34:58.528Z,76.95
2023-02-11T01:37:33.088Z,78.28
2023-02-11T01:40:05.655Z,74.80
2023-02-11T01:42:38.100Z,79.10
2023-02-11T01:45:39.971Z,78.53
2023-02-11T01:48:17.262Z,75.40
2023-02-11T01:50:52.526Z,76.43
2023-02-11T01:54:06.563Z,68.63
2023-02-11T01:56:52.612Z,76.43
2023-02-11T01:59:30.905Z,81.75
2023-02-11T02:02:09.955Z,75.10
2023-02-11T02:05:01.194Z,71.55
2023-02-11T02:07:39.352Z,67.57
2023-02-11T02:10:17.487Z,83.38
2023-02-11T02:12:49.303Z,72.70
2023-02-11T02:15:30.758Z,72.53
2023-02-11T02:18:14.487Z,74.05
2023-02-11T02:21:22.259Z,75.00
2023-02-11T02:24:33.909Z,85.45
2023-02-11T02:27:26.920Z,83.50
2023-02-11T02:30:19.817Z,80.55
2023-02-11T02:33:20.561Z,75.20
2023-02-11T02:36:05.782Z,79.40
2023-02-11T02:38:42.577Z,78.03
2023-02-11T02:41:17.013Z,78.22
2023-02-11T02:43:51.204Z,84.22
2023-02-11T02:46:25.214Z,79.10
2023-02-11T02:49:00.708Z,78.80
2023-02-11T02:52:02.618Z,81.30
2023-02-11T02:55:00.540Z,77.45
2023-02-11T02:57:46.150Z,84.55
2023-02-11T03:00:37.328Z,84.22
2023-02-11T03:03:30.378Z,80.93
2023-02-11T03:06:11.011Z,79.47
2023-02-11T03:09:04.120Z,82.03
2023-02-11T03:11:40.754Z,79.40
2023-02-11T03:14:20.235Z,85.72
2023-02-11T03:16:57.965Z,91.85
2023-02-11T03:19:34.023Z,83.75
2023-02-11T03:22:14.224Z,84.68
2023-02-11T03:24:45.876Z,88.88
2023-02-11T03:27:24.950Z,92.97
2023-02-11T03:30:02.681Z,86.43
2023-02-11T03:32:38.969Z,93.80
2023-02-11T03:35:17.609Z,91.32
2023-02-11T03:37:57.524Z,88.88
2023-02-11T03:40:32.343Z,98.35
2023-02-11T03:43:11.483Z,90.78
2023-02-11T03:45:45.284Z,87.78
2023-02-11T03:48:22.622Z,92.63
2023-02-11T03:50:58.604Z,88.25
2023-02-11T03:53:32.867Z,90.57
2023-02-11T03:56:08.567Z,86.45
2023-02-11T03:58:41.645Z,97.38
2023-02-11T04:01:13.080Z,92.38
2023-02-11T04:03:45.103Z,93.47
2023-02-11T04:06:16.962Z,98.70
2023-02-11T04:09:04.264Z,92.93
2023-02-11T04:11:41.778Z,95.15
2023-02-11T04:14:17.256Z,91.75
2023-02-11T04:16:49.474Z,92.03
2023-02-11T04:19:21.166Z,89.72
2023-02-11T04:21:52.663Z,97.93
2023-02-11T04:24:28.442Z,94.10
2023-02-11T04:27:03.938Z,105.15
2023-02-11T04:29:35.635Z,100.30
2023-02-11T04:32:07.193Z,96.78
2023-02-11T04:34:38.933Z,97.40
2023-02-11T04:37:10.500Z,95.55
2023-02-11T04:39:44.739Z,96.35
2023-02-11T04:42:16.270Z,107.15
2023-02-11T04:44:48.128Z,104.60
2023-02-11T04:47:19.625Z,99.47
2023-02-11T04:52:49.335Z,105.50
2023-02-11T04:55:26.157Z,108.00
2023-02-11T04:57:57.828Z,106.70
2023-02-11T05:00:29.213Z,110.95
2023-02-11T05:03:00.401Z,110.47
2023-02-11T05:05:32.441Z,105.50
2023-02-11T05:08:03.690Z,111.18
2023-02-11T05:10:39.183Z,106.30
2023-02-11T05:13:10.449Z,108.38
2023-02-11T05:15:42.258Z,111.38
2023-02-11T05:18:15.036Z,111.88
2023-02-11T05:20:47.734Z,112.82
2023-02-11T05:23:20.452Z,116.22
2023-02-11T05:25:54.908Z,112.97
2023-02-11T05:28:26.435Z,117.35
2023-02-11T05:30:59.627Z,113.78
2023-02-11T05:33:31.480Z,111.05
2023-02-11T05:36:03.700Z,124.25
2023-02-11T05:38:36.660Z,121.25
2023-02-11T05:41:10.879Z,124.78
2023-02-11T05:43:44.971Z,127.72
2023-02-11T05:46:17.058Z,115.38
2023-02-11T05:48:48.749Z,124.18
2023-02-11T05:51:23.218Z,118.93
2023-02-11T05:53:54.343Z,132.32
2023-02-11T05:56:30.945Z,132.75
2023-02-11T05:59:02.860Z,124.20
2023-02-11T06:01:35.211Z,118.00
2023-02-11T06:04:06.424Z,123.10
2023-02-11T06:06:38.180Z,125.75
2023-02-11T06:09:10.215Z,135.98
2023-02-11T06:11:44.589Z,125.97
2023-02-11T06:14:16.772Z,133.02
2023-02-11T06:16:48.864Z,139.75
2023-02-11T06:19:20.591Z,138.85
2023-02-11T06:21:52.679Z,140.75
2023-02-11T06:24:47.759Z,146.80
2023-02-11T06:27:19.621Z,139.60
2023-02-11T06:29:52.684Z,137.40
2023-02-11T06:32:42.836Z,144.05
2023-02-11T06:35:15.747Z,140.82
2023-02-11T06:37:50.110Z,144.00
2023-02-11T06:40:22.578Z,146.45
2023-02-11T06:42:57.789Z,144.52
2023-02-11T06:45:29.754Z,159.95
2023-02-11T06:48:02.189Z,153.82
2023-02-11T06:50:34.456Z,147.27
2023-02-11T06:53:07.435Z,143.13
2023-02-11T06:55:39.568Z,144.13
2023-02-11T06:58:14.728Z,152.65
2023-02-11T07:00:46.803Z,151.77
2023-02-11T07:03:19.312Z,151.73
2023-02-11T07:05:51.894Z,140.82
2023-02-11T07:08:24.989Z,144.70
2023-02-11T07:10:57.179Z,148.52
2023-02-11T07:13:32.238Z,156.65
2023-02-11T07:16:08.525Z,147.75
2023-02-11T07:18:41.110Z,151.93
2023-02-11T07:21:16.706Z,154.27
2023-02-11T07:23:49.592Z,160.43
2023-02-11T07:26:24.347Z,154.52
2023-02-11T07:28:59.918Z,141.30
2023-02-11T07:31:33.947Z,149.80
2023-02-11T07:34:06.710Z,147.95
2023-02-11T07:36:38.828Z,156.45
2023-02-11T07:39:11.170Z,148.60
2023-02-11T07:41:43.268Z,140.15
2023-02-11T07:44:18.966Z,146.27
2023-02-11T07:46:51.031Z,148.55
2023-02-11T07:49:23.858Z,143.63
2023-02-11T07:51:55.937Z,133.45
2023-02-11T07:54:28.409Z,126.03
2023-02-11T12:16:45.620Z,94.22
2023-02-11T12:19:32.396Z,91.55
2023-02-11T12:22:13.021Z,90.50
2023-02-11T12:24:59.923Z,88.82
2023-02-11T12:27:47.580Z,83.90
2023-02-11T12:30:47.596Z,82.25
2023-02-11T12:33:31.127Z,81.78
2023-02-11T12:36:11.938Z,88.15
2023-02-11T12:39:01.140Z,86.50
2023-02-11T12:42:07.647Z,81.72
2023-02-11T12:44:59.178Z,79.70
2023-02-11T12:47:41.341Z,84.32
2023-02-11T12:50:20.739Z,83.57
2023-02-11T12:53:11.601Z,78.40
2023-02-11T12:55:50.282Z,78.85
2023-02-11T12:58:35.586Z,72.63
2023-02-11T13:01:22.524Z,71.15
2023-02-11T13:04:02.949Z,73.20
2023-02-11T13:06:43.104Z,72.35
2023-02-11T13:09:21.179Z,77.53
2023-02-11T13:11:54.789Z,73.45
2023-02-11T13:14:32.739Z,72.95
2023-02-11T13:17:09.211Z,76.28
2023-02-11T13:19:53.058Z,87.13
2023-02-11T13:22:35.000Z,91.90
2023-02-11T13:25:22.279Z,75.60
2023-02-11T13:28:02.538Z,72.70
2023-02-11T13:30:37.216Z,64.88
2023-02-11T13:33:34.140Z,69.45
2023-02-11T13:36:37.176Z,66.47
2023-02-11T13:39:10.198Z,58.33
2023-02-11T13:41:46.415Z,62.60
2023-02-11T13:44:38.856Z,64.95
2023-02-11T13:47:25.634Z,65.40
2023-02-11T13:49:57.856Z,70.63
2023-02-11T13:52:45.654Z,60.13
2023-02-11T13:55:27.798Z,65.15
2023-02-11T13:58:40.477Z,62.40
2023-02-11T14:01:12.630Z,66.03
2023-02-11T14:04:34.888Z,64.38
2023-02-11T14:07:43.969Z,67.82
2023-02-11T14:10:45.489Z,65.82
2023-02-11T14:13:28.363Z,65.93
2023-02-11T14:16:11.016Z,67.43
2023-02-11T14:19:03.431Z,71.68
2023-02-11T14:21:41.214Z,79.32
2023-02-11T14:24:48.773Z,77.32
2023-02-11T14:27:28.612Z,77.18
2023-02-11T14:30:33.275Z,80.22
2023-02-11T14:33:43.256Z,78.78
2023-02-11T14:36:30.181Z,84.68
2023-02-11T14:39:12.199Z,82.30
2023-02-11T14:41:46.645Z,79.47
2023-02-11T14:44:23.020Z,79.40
2023-02-11T14:46:59.700Z,72.18
2023-02-11T14:49:36.956Z,69.82
2023-02-11T14:52:20.158Z,71.63
2023-02-11T14:54:54.713Z,73.82
2023-02-11T14:57:28.537Z,73.07
2023-02-11T15:00:07.216Z,68.70
2023-02-11T15:03:04.362Z,65.78
2023-02-11T15:05:37.833Z,64.35
2023-02-11T15:08:20.685Z,68.38
2023-02-11T15:10:58.044Z,65.28
2023-02-11T15:13:34.095Z,64.65
2023-02-11T15:16:18.665Z,63.00
2023-02-11T15:18:57.873Z,64.65
2023-02-11T15:21:34.414Z,60.90
2023-02-11T15:24:08.897Z,57.47
2023-02-11T15:26:40.633Z,67.72
2023-02-11T15:29:23.137Z,61.38
2023-02-11T15:32:12.432Z,61.33
2023-02-11T15:34:54.035Z,55.88
2023-02-11T15:37:30.067Z,58.47
2023-02-11T15:40:14.756Z,59.53
2023-02-11T15:43:02.834Z,60.72
2023-02-11T15:45:38.313Z,57.38
2023-02-11T15:48:16.317Z,55.67
2023-02-11T15:50:59.161Z,54.83
2023-02-11T15:53:40.792Z,58.25
2023-02-11T15:56:27.671Z,56.95
2023-02-11T15:59:03.005Z,54.50
2023-02-11T16:01:39.894Z,57.05
2023-02-11T16:04:20.286Z,57.88
2023-02-11T16:06:57.122Z,58.55
2023-02-11T16:09:36.139Z,47.90
2023-02-11T16:12:30.856Z,53.40
2023-02-11T16:15:25.971Z,57.13
2023-02-11T16:17:57.901Z,52.33
2023-02-11T16:20:29.955Z,54.38
2023-02-11T16:23:06.824Z,55.15
2023-02-11T16:25:39.612Z,54.67
2023-02-11T16:28:18.641Z,50.10
2023-02-11T16:31:00.324Z,50.15
2023-02-11T16:40:23.983Z,44.17
2023-02-11T16:43:13.999Z,45.50
2023-02-11T16:45:55.008Z,44.90
2023-02-11T16:48:49.741Z,40.38
2023-02-11T16:51:22.286Z,43.95
2023-02-11T16:54:04.434Z,48.03
2023-02-11T16:57:06.775Z,46.70
2023-02-11T16:59:42.545Z,47.55
2023-02-11T17:02:41.356Z,47.28
2023-02-11T17:05:23.532Z,53.03
2023-02-11T17:08:00.767Z,55.08
2023-02-11T17:10:33.737Z,48.38
2023-02-11T17:13:08.295Z,50.50
2023-02-11T17:15:39.933Z,48.92
2023-02-11T17:18:15.841Z,49.40
2023-02-11T17:20:47.723Z,52.42
2023-02-11T17:23:19.723Z,53.13
2023-02-11T17:29:02.158Z,42.63
2023-02-11T17:31:35.005Z,40.10
2023-02-11T17:34:07.553Z,40.90
2023-02-11T17:36:41.852Z,39.28
2023-02-11T17:39:15.250Z,40.25
2023-02-11T17:41:48.255Z,37.72
2023-02-11T17:44:23.158Z,37.17
2023-02-11T17:46:55.891Z,38.10
2023-02-11T17:49:28.529Z,37.03
2023-02-11T17:52:01.157Z,39.80
2023-02-11T17:54:33.659Z,38.67
2023-02-11T17:57:06.474Z,41.85
2023-02-11T17:59:41.693Z,39.25
2023-02-11T18:02:15.401Z,36.45
2023-02-11T18:04:47.894Z,35.70
2023-02-11T18:07:20.596Z,32.83
2023-02-11T18:09:53.201Z,31.40
2023-02-11T18:12:28.532Z,32.65
2023-02-11T18:15:06.873Z,33.72
2023-02-11T18:17:39.953Z,36.30
2023-02-11T18:20:13.730Z,34.17
2023-02-11T18:22:46.392Z,38.72
2023-02-11T18:25:19.254Z,31.33
2023-02-11T18:27:51.921Z,35.97
2023-02-11T18:30:27.118Z,33.85
2023-02-11T18:32:59.824Z,35.58
2023-02-11T18:35:32.097Z,34.92
2023-02-11T18:38:08.564Z,36.83
2023-02-11T18:40:43.218Z,36.08
2023-02-11T18:43:15.457Z,31.45
2023-02-11T18:45:52.229Z,31.25
2023-02-11T18:48:24.738Z,30.77
2023-02-11T18:50:58.158Z,33.97
2023-02-11T18:53:30.541Z,29.52
2023-02-11T18:56:02.399Z,28.30
2023-02-11T18:58:34.558Z,29.45
2023-02-11T19:01:15.480Z,31.25
2023-02-11T19:03:48.561Z,28.63
2023-02-11T19:06:22.603Z,32.72
2023-02-11T19:08:58.990Z,27.92
2023-02-11T19:11:45.199Z,26.77
2023-02-11T19:14:21.142Z,27.35
2023-02-11T19:16:57.357Z,28.35
2023-02-11T19:19:31.615Z,27.30
2023-02-11T19:22:09.118Z,29.80
2023-02-11T19:24:42.386Z,28.85
2023-02-11T19:27:20.236Z,28.27
2023-02-11T19:30:11.017Z,28.77
2023-02-11T19:32:45.720Z,28.15
2023-02-11T19:35:17.937Z,31.70
2023-02-11T19:37:49.726Z,30.65
2023-02-11T19:40:22.556Z,33.20
2023-02-11T19:42:54.504Z,32.67
2023-02-11T19:45:27.167Z,31.23
2023-02-11T19:48:02.129Z,31.77
2023-02-11T19:50:34.407Z,30.45
2023-02-11T19:53:06.178Z,30.35
2023-02-11T19:55:38.717Z,31.75
2023-02-11T19:58:10.495Z,36.53
2023-02-11T20:00:43.197Z,31.33
2023-02-11T20:03:17.941Z,35.45
2023-02-11T20:05:50.845Z,31.13
2023-02-11T20:08:23.218Z,33.53
2023-02-11T20:10:55.402Z,34.50
2023-02-11T20:13:28.455Z,34.58
2023-02-11T20:16:00.815Z,32.95
2023-02-11T20:18:35.423Z,32.38
2023-02-11T20:21:10.861Z,32.80
2023-02-11T20:23:45.151Z,33.92
2023-02-11T20:26:19.893Z,34.70
2023-02-11T20:28:53.812Z,35.63
2023-02-11T20:31:27.177Z,32.22
2023-02-11T20:34:02.282Z,34.33
2023-02-11T20:36:38.572Z,36.17
2023-02-11T20:39:11.364Z,30.40
2023-02-11T20:41:46.370Z,29.25
2023-02-11T20:44:19.135Z,32.63
2023-02-11T20:46:51.807Z,29.52
2023-02-11T20:49:28.725Z,28.83
2023-02-11T20:52:01.307Z,28.30
2023-02-11T20:55:07.745Z,26.25
2023-02-11T20:57:39.879Z,28.48
2023-02-11T21:00:14.636Z,31.80
2023-02-11T21:02:54.918Z,27.92
2023-02-11T21:05:29.899Z,29.60
2023-02-11T21:08:02.864Z,25.90
2023-02-11T21:10:35.245Z,28.02
2023-02-11T21:13:07.845Z,30.80
2023-02-11T21:15:40.182Z,27.42
2023-02-11T21:18:13.754Z,28.50
2023-02-11T21:20:52.869Z,30.67
2023-02-11T21:23:26.350Z,29.35
2023-02-11T21:25:58.830Z,27.92
2023-02-11T21:28:31.570Z,30.80
2023-02-11T21:31:03.866Z,26.58
2023-02-11T21:33:36.793Z,26.02
2023-02-11T21:36:11.761Z,26.10
2023-02-11T21:38:43.815Z,30.25
2023-02-11T21:41:16.015Z,26.48
2023-02-11T21:43:49.194Z,32.40
2023-02-11T21:46:22.828Z,28.60
2023-02-11T21:48:55.088Z,32.97
2023-02-11T21:51:30.714Z,39.53
2023-02-11T21:54:03.995Z,27.85
2023-02-11T21:56:36.701Z,29.33
2023-02-11T21:59:09.006Z,27.85
2023-02-11T22:01:42.059Z,27.92
2023-02-11T22:04:14.534Z,31.00
2023-02-11T22:06:49.596Z,28.00
2023-02-11T22:09:21.776Z,28.13
2023-02-11T22:11:53.968Z,32.70
2023-02-11T22:14:26.055Z,35.75
2023-02-11T22:16:58.947Z,35.58
2023-02-11T22:19:32.921Z,34.60
2023-02-11T22:22:08.232Z,36.92
2023-02-11T22:24:40.948Z,34.47
2023-02-11T22:27:14.441Z,33.63
2023-02-11T22:29:46.100Z,33.55
2023-02-11T22:32:20.303Z,35.95
2023-02-11T22:34:53.405Z,32.20
2023-02-11T22:37:27.829Z,36.17
2023-02-11T22:39:59.820Z,41.17
2023-02-11T22:42:31.848Z,40.53
2023-02-11T22:45:03.773Z,33.40
2023-02-11T22:47:36.571Z,35.42
2023-02-11T22:50:09.815Z,34.97
2023-02-11T22:52:45.487Z,39.33
2023-02-11T22:55:17.805Z,37.47
2023-02-11T22:57:49.531Z,40.38
2023-02-11T23:00:24.820Z,32.33
2023-02-11T23:02:56.277Z,43.47
2023-02-11T23:05:29.356Z,39.13
2023-02-11T23:08:05.417Z,37.08
2023-02-11T23:10:45.928Z,31.42
2023-02-11T23:13:20.146Z,35.30
2023-02-11T23:15:51.890Z,45.05
2023-02-11T23:18:23.952Z,33.75
2023-02-11T23:20:56.139Z,33.50
2023-02-11T23:23:31.084Z,35.67
2023-02-11T23:26:06.486Z,44.60
2023-02-11T23:28:38.636Z,35.97
2023-02-11T23:31:19.678Z,36.63
2023-02-11T23:33:51.901Z,35.72
2023-02-11T23:36:24.760Z,39.17
2023-02-11T23:38:58.879Z,32.47
2023-02-11T23:41:32.118Z,35.25
2023-02-11T23:44:03.892Z,35.80
2023-02-11T23:46:36.250Z,46.72
2023-02-11T23:49:07.596Z,42.80
2023-02-11T23:51:39.275Z,34.40
2023-02-11T23:54:15.209Z,41.92
2023-02-11T23:56:47.300Z,35.60
2023-02-11T23:59:22.551Z,39.72
